createdAt,value
2019-03-09T00:00:57.605Z,7.50
2019-03-09T00:03:25.671Z,7.60
2019-03-09T00:05:53.728Z,7.17
2019-03-09T00:08:21.729Z,7.87
2019-03-09T00:10:50.004Z,7.00
2019-03-09T00:13:18.074Z,8.07
2019-03-09T00:15:46.124Z,7.10
2019-03-09T00:18:14.124Z,7.63
2019-03-09T00:20:42.130Z,7.27
2019-03-09T00:23:23.335Z,8.03
2019-03-09T00:26:09.217Z,8.03
2019-03-09T00:28:43.623Z,7.57
2019-03-09T00:31:22.067Z,7.60
2019-03-09T00:33:50.045Z,8.30
2019-03-09T00:36:18.101Z,8.03
2019-03-09T00:38:46.102Z,8.00
2019-03-09T00:41:14.086Z,8.57
2019-03-09T00:43:42.318Z,8.33
2019-03-09T00:46:11.348Z,8.53
2019-03-09T00:48:39.394Z,9.73
2019-03-09T00:51:07.355Z,8.80
2019-03-09T00:53:35.369Z,9.00
2019-03-09T00:56:03.387Z,8.70
2019-03-09T00:58:31.388Z,8.40
2019-03-09T01:00:59.449Z,8.40
2019-03-09T01:03:27.538Z,8.87
2019-03-09T01:05:56.022Z,8.17
2019-03-09T01:08:24.058Z,8.73
2019-03-09T01:10:52.037Z,8.80
2019-03-09T01:13:20.126Z,8.70
2019-03-09T01:15:48.061Z,8.20
2019-03-09T01:18:16.047Z,8.60
2019-03-09T01:20:44.008Z,8.07
2019-03-09T01:23:11.997Z,8.50
2019-03-09T01:25:40.069Z,7.87
2019-03-09T01:28:08.123Z,8.30
2019-03-09T01:30:36.121Z,7.97
2019-03-09T01:33:04.153Z,7.50
2019-03-09T01:35:32.127Z,8.00
2019-03-09T01:38:00.120Z,7.87
2019-03-09T01:40:28.158Z,8.20
2019-03-09T01:42:56.082Z,8.00
2019-03-09T01:45:24.157Z,7.93
2019-03-09T01:47:52.069Z,8.30
2019-03-09T01:50:20.066Z,7.23
2019-03-09T01:52:48.142Z,7.53
2019-03-09T01:55:16.196Z,7.50
2019-03-09T01:57:44.180Z,7.93
2019-03-09T02:00:12.746Z,7.50
2019-03-09T02:02:40.742Z,7.23
2019-03-09T02:05:08.803Z,8.30
2019-03-09T02:07:36.849Z,7.50
2019-03-09T02:10:05.083Z,7.80
2019-03-09T02:12:33.093Z,8.03
2019-03-09T02:15:01.090Z,7.33
2019-03-09T02:17:29.181Z,7.37
2019-03-09T02:19:57.121Z,7.33
2019-03-09T02:22:25.195Z,7.80
2019-03-09T02:24:53.171Z,7.50
2019-03-09T02:27:21.272Z,7.40
2019-03-09T02:29:49.292Z,7.30
2019-03-09T02:32:17.286Z,7.17
2019-03-09T02:34:45.456Z,6.97
2019-03-09T02:37:13.517Z,6.70
2019-03-09T02:40:09.482Z,7.37
2019-03-09T02:42:37.453Z,6.90
2019-03-09T02:45:05.898Z,7.27
2019-03-09T02:47:33.948Z,7.40
2019-03-09T02:50:01.948Z,7.60
2019-03-09T02:52:29.892Z,7.00
2019-03-09T02:54:57.867Z,7.50
2019-03-09T02:57:25.826Z,7.03
2019-03-09T02:59:53.815Z,7.43
2019-03-09T03:02:28.347Z,7.60
2019-03-09T03:04:56.402Z,7.90
2019-03-09T03:07:24.493Z,7.87
2019-03-09T03:09:53.465Z,7.80
2019-03-09T03:12:21.436Z,7.23
2019-03-09T03:14:49.502Z,7.60
2019-03-09T03:17:17.474Z,7.50
2019-03-09T03:19:45.427Z,7.90
2019-03-09T03:22:13.404Z,7.67
2019-03-09T03:24:41.368Z,7.50
2019-03-09T03:27:09.500Z,7.43
2019-03-09T03:29:37.511Z,7.60
2019-03-09T03:32:05.508Z,7.47
2019-03-09T03:34:33.559Z,6.90
2019-03-09T03:37:01.815Z,7.63
2019-03-09T03:39:29.796Z,7.40
2019-03-09T03:41:57.777Z,7.60
2019-03-09T03:44:25.776Z,7.73
2019-03-09T03:46:53.840Z,7.37
2019-03-09T03:49:21.886Z,7.30
2019-03-09T03:51:49.837Z,7.27
2019-03-09T03:54:17.831Z,7.97
2019-03-09T03:56:47.371Z,8.00
2019-03-09T03:59:15.487Z,7.57
2019-03-09T04:01:43.585Z,7.77
2019-03-09T04:04:11.698Z,8.07
2019-03-09T04:06:39.809Z,7.93
2019-03-09T04:09:08.194Z,7.93
2019-03-09T04:11:36.486Z,7.70
2019-03-09T04:14:04.551Z,8.20
2019-03-09T04:16:32.506Z,8.17
2019-03-09T04:19:00.489Z,8.23
2019-03-09T04:21:28.453Z,9.43
2019-03-09T04:23:56.427Z,8.47
2019-03-09T04:26:24.395Z,8.90
2019-03-09T04:28:52.497Z,8.60
2019-03-09T04:31:20.534Z,9.10
2019-03-09T04:33:48.512Z,7.63
2019-03-09T04:36:16.595Z,8.90
2019-03-09T04:38:44.633Z,8.40
2019-03-09T04:41:12.610Z,8.33
2019-03-09T04:43:40.634Z,9.70
2019-03-09T04:46:08.677Z,8.60
2019-03-09T04:48:36.642Z,8.43
2019-03-09T04:51:04.692Z,8.43
2019-03-09T04:53:32.686Z,8.60
2019-03-09T04:56:00.738Z,8.30
2019-03-09T04:58:28.735Z,9.33
2019-03-09T05:00:56.882Z,8.43
2019-03-09T05:03:24.852Z,8.77
2019-03-09T05:05:53.020Z,8.37
2019-03-09T05:08:26.634Z,8.60
2019-03-09T05:11:06.235Z,9.10
2019-03-09T05:13:35.877Z,8.73
2019-03-09T05:16:03.854Z,9.10
2019-03-09T05:18:31.899Z,8.60
2019-03-09T05:20:59.901Z,9.07
2019-03-09T05:23:27.946Z,9.70
2019-03-09T05:25:55.925Z,9.83
2019-03-09T05:28:23.909Z,9.87
2019-03-09T05:30:51.868Z,10.27
2019-03-09T05:33:19.923Z,8.70
2019-03-09T05:35:47.902Z,9.17
2019-03-09T05:38:15.885Z,8.97
2019-03-09T05:40:43.932Z,9.87
2019-03-09T05:43:13.385Z,8.10
2019-03-09T05:45:41.301Z,8.87
2019-03-09T05:48:09.283Z,8.70
2019-03-09T05:50:37.291Z,9.90
2019-03-09T05:53:09.412Z,12.60
2019-03-09T05:55:37.395Z,11.33
2019-03-09T05:58:05.452Z,11.53
2019-03-09T06:00:34.348Z,12.60
2019-03-09T06:03:02.353Z,11.30
2019-03-09T06:05:34.745Z,11.20
2019-03-09T06:08:02.772Z,11.37
2019-03-09T06:10:30.829Z,10.87
2019-03-09T06:12:58.825Z,11.60
2019-03-09T06:15:26.818Z,11.10
2019-03-09T06:17:54.861Z,10.10
2019-03-09T06:20:22.814Z,10.00
2019-03-09T06:22:51.813Z,9.90
2019-03-09T06:25:19.979Z,10.40
2019-03-09T06:27:48.036Z,10.00
2019-03-09T06:30:16.267Z,11.47
2019-03-09T06:33:01.984Z,11.00
2019-03-09T06:35:29.889Z,11.23
2019-03-09T06:38:04.327Z,10.23
2019-03-09T06:40:32.282Z,10.60
2019-03-09T06:43:00.333Z,10.10
2019-03-09T06:45:28.263Z,9.50
2019-03-09T06:47:56.192Z,9.70
2019-03-09T06:50:24.232Z,8.40
2019-03-09T06:52:52.244Z,8.40
2019-03-09T06:55:20.183Z,9.57
2019-03-09T06:57:48.183Z,10.00
2019-03-09T07:00:35.328Z,9.43
2019-03-09T07:03:03.348Z,9.10
2019-03-09T07:05:31.399Z,8.47
2019-03-09T07:07:59.401Z,9.27
2019-03-09T07:10:27.460Z,9.30
2019-03-09T07:12:55.437Z,9.60
2019-03-09T07:15:33.216Z,9.33
2019-03-09T07:18:02.550Z,8.93
2019-03-09T07:20:30.664Z,9.53
2019-03-09T07:22:58.573Z,9.70
2019-03-09T07:25:26.627Z,9.80
2019-03-09T07:28:04.335Z,9.63
2019-03-09T07:30:32.308Z,10.33
2019-03-09T07:33:00.276Z,10.20
2019-03-09T07:35:28.500Z,10.17
2019-03-09T07:37:56.786Z,10.50
2019-03-09T07:40:24.802Z,10.20
2019-03-09T07:42:52.798Z,9.60
2019-03-09T07:45:20.933Z,10.50
2019-03-09T07:47:49.087Z,10.63
2019-03-09T07:50:17.080Z,11.13
2019-03-09T07:52:45.238Z,10.00
2019-03-09T07:55:13.905Z,9.43
2019-03-09T07:57:41.947Z,10.27
2019-03-09T08:00:11.341Z,8.93
2019-03-09T08:02:39.377Z,9.03
2019-03-09T08:05:07.370Z,9.80
2019-03-09T08:07:35.424Z,10.23
2019-03-09T08:10:03.552Z,7.70
2019-03-09T08:12:31.576Z,8.20
2019-03-09T08:14:59.860Z,8.27
2019-03-09T08:17:27.961Z,8.47
2019-03-09T08:19:56.316Z,7.97
2019-03-09T08:22:24.560Z,7.80
2019-03-09T08:24:53.996Z,8.50
2019-03-09T08:27:22.518Z,9.03
2019-03-09T08:29:50.670Z,8.50
2019-03-09T08:32:18.739Z,9.40
2019-03-09T08:34:46.686Z,8.67
2019-03-09T08:37:14.743Z,9.17
2019-03-09T08:39:42.751Z,10.37
2019-03-09T08:42:12.020Z,8.60
2019-03-09T08:44:42.763Z,8.27
2019-03-09T08:47:10.794Z,8.57
2019-03-09T08:49:38.792Z,9.87
2019-03-09T08:52:07.296Z,14.20
2019-03-09T08:54:36.296Z,9.50
2019-03-09T08:57:04.594Z,9.23
2019-03-09T08:59:32.629Z,8.93
2019-03-09T09:02:00.706Z,8.87
2019-03-09T09:04:28.765Z,9.40
2019-03-09T09:06:57.906Z,10.10
2019-03-09T09:09:25.965Z,9.10
2019-03-09T09:11:53.984Z,9.20
2019-03-09T09:14:22.069Z,9.60
2019-03-09T09:16:50.148Z,9.40
2019-03-09T09:19:18.219Z,8.73
2019-03-09T09:21:46.200Z,9.23
2019-03-09T09:24:14.234Z,9.17
2019-03-09T09:26:42.309Z,9.40
2019-03-09T09:29:10.292Z,9.27
2019-03-09T09:31:38.412Z,8.93
2019-03-09T09:34:06.387Z,8.83
2019-03-09T09:36:35.137Z,9.00
2019-03-09T09:39:04.616Z,8.70
2019-03-09T09:41:34.640Z,9.17
2019-03-09T09:44:02.947Z,8.87
2019-03-09T09:46:32.226Z,9.27
2019-03-09T09:49:00.283Z,8.87
2019-03-09T09:51:28.259Z,9.40
2019-03-09T09:53:56.330Z,9.10
2019-03-09T09:56:24.550Z,9.33
2019-03-09T09:58:52.637Z,8.97
2019-03-09T10:01:20.735Z,10.23
2019-03-09T10:03:48.861Z,9.27
2019-03-09T10:06:17.091Z,8.90
2019-03-09T10:08:45.150Z,9.40
2019-03-09T10:11:13.183Z,9.77
2019-03-09T10:13:41.220Z,9.77
2019-03-09T10:16:09.171Z,9.03
2019-03-09T10:18:37.262Z,9.80
2019-03-09T10:21:05.303Z,9.77
2019-03-09T10:23:33.294Z,9.23
2019-03-09T10:26:01.556Z,10.10
2019-03-09T10:28:29.814Z,9.43
2019-03-09T10:30:57.817Z,9.63
2019-03-09T10:33:25.779Z,10.20
2019-03-09T10:35:53.984Z,9.50
2019-03-09T10:38:22.046Z,9.70
2019-03-09T10:40:50.229Z,10.10
2019-03-09T10:43:18.360Z,10.00
2019-03-09T10:45:46.364Z,9.63
2019-03-09T10:48:14.436Z,9.60
2019-03-09T10:50:42.457Z,9.90
2019-03-09T10:53:10.466Z,9.03
2019-03-09T10:55:38.864Z,10.07
2019-03-09T10:58:06.913Z,10.33
2019-03-09T11:00:34.900Z,10.00
2019-03-09T11:03:03.055Z,9.90
2019-03-09T11:05:31.212Z,10.40
2019-03-09T11:07:59.480Z,9.90
2019-03-09T11:10:27.653Z,10.33
2019-03-09T11:12:55.655Z,9.40
2019-03-09T11:15:23.709Z,9.60
2019-03-09T11:17:51.754Z,9.90
2019-03-09T11:20:19.841Z,10.13
2019-03-09T11:22:48.829Z,10.10
2019-03-09T11:25:16.821Z,9.03
2019-03-09T11:27:44.905Z,10.00
2019-03-09T11:30:14.571Z,10.50
2019-03-09T11:32:42.604Z,10.13
2019-03-09T11:35:10.540Z,10.17
2019-03-09T11:37:38.615Z,11.00
2019-03-09T11:40:06.905Z,10.20
2019-03-09T11:42:34.968Z,9.40
2019-03-09T11:45:03.210Z,9.83
2019-03-09T11:47:31.878Z,10.53
2019-03-09T11:49:59.880Z,9.53
2019-03-09T11:52:29.182Z,10.47
2019-03-09T11:54:57.442Z,10.27
2019-03-09T11:57:25.531Z,10.90
2019-03-09T11:59:53.666Z,10.97
2019-03-09T12:02:21.788Z,17.50
2019-03-09T12:04:50.065Z,10.87
2019-03-09T12:07:18.128Z,10.00
2019-03-09T12:09:46.275Z,9.70
2019-03-09T12:12:14.445Z,10.00
2019-03-09T12:14:42.530Z,9.80
2019-03-09T12:17:13.546Z,9.73
2019-03-09T12:19:40.462Z,9.83
2019-03-09T12:22:08.784Z,9.60
2019-03-09T12:24:36.782Z,10.10
2019-03-09T12:27:04.998Z,10.90
2019-03-09T12:29:33.190Z,10.60
2019-03-09T12:32:01.342Z,10.17
2019-03-09T12:34:29.352Z,9.27
2019-03-09T12:36:57.454Z,9.73
2019-03-09T12:39:25.705Z,11.00
2019-03-09T12:41:53.797Z,9.90
2019-03-09T12:44:21.841Z,10.90
2019-03-09T12:46:49.892Z,9.60
2019-03-09T12:49:17.951Z,11.77
2019-03-09T12:51:45.984Z,11.83
2019-03-09T12:54:14.092Z,9.73
2019-03-09T12:56:42.299Z,9.37
2019-03-09T12:59:10.296Z,8.53
2019-03-09T13:01:38.350Z,9.20
2019-03-09T13:04:10.762Z,8.93
2019-03-09T13:06:38.870Z,9.13
2019-03-09T13:09:07.099Z,8.77
2019-03-09T13:11:35.138Z,9.80
2019-03-09T13:14:03.170Z,8.50
2019-03-09T13:16:31.200Z,9.80
2019-03-09T13:18:59.264Z,8.50
2019-03-09T13:21:27.254Z,8.73
2019-03-09T13:23:55.337Z,8.33
2019-03-09T13:26:24.415Z,8.77
2019-03-09T13:28:52.509Z,8.10
2019-03-09T13:31:20.532Z,9.23
2019-03-09T13:33:48.491Z,8.30
2019-03-09T13:36:16.608Z,10.33
2019-03-09T13:38:44.981Z,8.60
2019-03-09T13:41:13.005Z,10.20
2019-03-09T13:43:41.025Z,9.23
2019-03-09T13:46:09.078Z,8.90
2019-03-09T13:48:37.060Z,9.30
2019-03-09T13:51:05.034Z,8.37
2019-03-09T13:53:33.486Z,8.57
2019-03-09T13:56:01.433Z,8.50
2019-03-09T13:58:30.517Z,8.60
2019-03-09T14:00:59.294Z,9.63
2019-03-09T14:03:28.547Z,8.73
2019-03-09T14:05:56.511Z,9.83
2019-03-09T14:08:24.587Z,8.77
2019-03-09T14:10:52.677Z,10.07
2019-03-09T14:13:20.738Z,11.17
2019-03-09T14:15:48.771Z,8.27
2019-03-09T14:18:16.765Z,9.23
2019-03-09T14:20:44.829Z,8.10
2019-03-09T14:23:12.930Z,8.73
2019-03-09T14:25:40.853Z,8.20
2019-03-09T14:28:08.875Z,7.37
2019-03-09T14:30:36.956Z,8.23
2019-03-09T14:33:04.973Z,7.83
2019-03-09T14:35:33.067Z,8.47
2019-03-09T14:38:01.017Z,7.70
2019-03-09T14:40:29.045Z,8.40
2019-03-09T14:42:57.066Z,8.67
2019-03-09T14:45:25.232Z,8.90
2019-03-09T14:47:53.256Z,8.40
2019-03-09T14:50:21.372Z,9.20
2019-03-09T14:52:49.363Z,8.63
2019-03-09T14:55:18.319Z,9.00
2019-03-09T14:57:46.309Z,9.30
2019-03-09T15:00:15.725Z,9.33
2019-03-09T15:02:43.789Z,8.37
2019-03-09T15:05:11.776Z,8.63
2019-03-09T15:07:39.850Z,8.53
2019-03-09T15:10:08.330Z,8.57
2019-03-09T15:12:36.579Z,8.97
2019-03-09T15:15:04.732Z,8.80
2019-03-09T15:17:32.730Z,8.73
2019-03-09T15:20:00.813Z,8.73
2019-03-09T15:22:28.788Z,9.70
2019-03-09T15:24:56.822Z,9.00
2019-03-09T15:27:24.846Z,8.80
2019-03-09T15:29:52.849Z,10.03
2019-03-09T15:32:21.028Z,10.77
2019-03-09T15:34:49.423Z,9.17
2019-03-09T15:37:18.343Z,8.97
2019-03-09T15:39:46.459Z,10.40
2019-03-09T15:42:14.484Z,9.90
2019-03-09T15:44:42.519Z,10.10
2019-03-09T15:47:10.633Z,9.63
2019-03-09T15:49:38.709Z,9.93
2019-03-09T15:52:06.757Z,9.60
2019-03-09T15:54:35.144Z,10.13
2019-03-09T15:57:03.303Z,10.73
2019-03-09T15:59:31.382Z,9.50
2019-03-09T16:02:03.914Z,9.63
2019-03-09T16:04:32.209Z,9.67
2019-03-09T16:07:03.219Z,9.40
2019-03-09T16:09:31.230Z,9.57
2019-03-09T16:11:59.279Z,9.40
2019-03-09T16:14:27.300Z,9.03
2019-03-09T16:16:55.335Z,13.20
2019-03-09T16:19:23.422Z,9.50
2019-03-09T16:21:51.493Z,9.30
2019-03-09T16:24:19.468Z,11.00
2019-03-09T16:26:48.105Z,15.10
2019-03-09T16:29:16.346Z,12.17
2019-03-09T16:31:45.076Z,10.27
2019-03-09T16:34:13.186Z,9.57
2019-03-09T16:36:41.281Z,10.90
2019-03-09T16:39:09.341Z,9.93
2019-03-09T16:41:37.590Z,10.20
2019-03-09T16:44:05.701Z,9.20
2019-03-09T16:46:34.128Z,10.37
2019-03-09T16:49:04.782Z,10.47
2019-03-09T16:51:32.936Z,10.37
2019-03-09T16:54:01.005Z,12.77
2019-03-09T16:56:29.891Z,10.70
2019-03-09T16:58:57.773Z,9.70
2019-03-09T17:01:25.991Z,11.33
2019-03-09T17:03:54.198Z,12.37
2019-03-09T17:06:22.426Z,10.77
2019-03-09T17:08:50.577Z,10.33
2019-03-09T17:11:19.453Z,9.90
2019-03-09T17:13:47.582Z,10.17
2019-03-09T17:16:16.188Z,9.93
2019-03-09T17:18:44.237Z,10.53
2019-03-09T17:21:12.261Z,11.60
2019-03-09T17:23:40.197Z,9.97
2019-03-09T17:26:08.683Z,9.97
2019-03-09T17:28:36.698Z,10.60
2019-03-09T17:31:04.790Z,11.70
2019-03-09T17:33:33.038Z,11.40
2019-03-09T17:36:01.019Z,10.10
2019-03-09T17:38:29.420Z,11.03
2019-03-09T17:40:57.471Z,9.60
2019-03-09T17:43:25.552Z,10.37
2019-03-09T17:45:53.519Z,10.03
2019-03-09T17:48:21.523Z,10.70
2019-03-09T17:50:49.584Z,10.10
2019-03-09T17:53:17.573Z,10.47
2019-03-09T17:55:45.515Z,9.30
2019-03-09T17:58:13.555Z,13.90
2019-03-09T18:00:44.386Z,12.77
2019-03-09T18:03:12.358Z,10.20
2019-03-09T18:05:40.382Z,10.30
2019-03-09T18:08:08.461Z,10.03
2019-03-09T18:10:38.484Z,10.40
2019-03-09T18:13:07.277Z,11.23
2019-03-09T18:15:35.156Z,11.10
2019-03-09T18:18:03.353Z,9.87
2019-03-09T18:20:31.444Z,11.20
2019-03-09T18:22:59.391Z,11.00
2019-03-09T18:25:27.382Z,11.63
2019-03-09T18:27:55.467Z,11.10
2019-03-09T18:30:23.434Z,11.27
2019-03-09T18:32:51.470Z,13.67
2019-03-09T18:35:19.450Z,14.13
2019-03-09T18:37:47.517Z,10.80
2019-03-09T18:40:15.631Z,10.90
2019-03-09T18:42:43.993Z,10.70
2019-03-09T18:45:13.038Z,9.50
2019-03-09T18:47:41.020Z,10.80
2019-03-09T18:50:09.274Z,9.83
2019-03-09T18:52:37.379Z,10.77
2019-03-09T18:55:05.486Z,10.00
2019-03-09T18:57:33.442Z,11.60
2019-03-09T19:00:01.507Z,10.70
2019-03-09T19:02:29.611Z,11.30
2019-03-09T19:04:57.798Z,11.97
2019-03-09T19:07:25.798Z,11.40
2019-03-09T19:09:53.944Z,10.70
2019-03-09T19:12:21.844Z,10.93
2019-03-09T19:14:52.159Z,11.33
2019-03-09T19:17:20.181Z,10.93
2019-03-09T19:19:48.219Z,11.20
2019-03-09T19:22:16.252Z,10.67
2019-03-09T19:24:44.366Z,14.60
2019-03-09T19:27:12.368Z,13.43
2019-03-09T19:29:40.471Z,12.60
2019-03-09T19:32:08.588Z,12.07
2019-03-09T19:34:36.689Z,11.70
2019-03-09T19:37:04.837Z,10.67
2019-03-09T19:39:33.551Z,11.70
2019-03-09T19:42:01.943Z,10.67
2019-03-09T19:44:30.139Z,10.70
2019-03-09T19:46:59.222Z,11.00
2019-03-09T19:49:27.246Z,9.90
2019-03-09T19:51:55.347Z,10.63
2019-03-09T19:54:23.376Z,9.83
2019-03-09T19:56:51.330Z,11.00
2019-03-09T19:59:19.342Z,10.70
2019-03-09T20:01:47.450Z,11.90
2019-03-09T20:04:15.625Z,11.33
2019-03-09T20:06:43.726Z,10.73
2019-03-09T20:09:11.944Z,11.90
2019-03-09T20:11:39.993Z,11.23
2019-03-09T20:14:08.057Z,11.43
2019-03-09T20:16:36.141Z,11.50
2019-03-09T20:19:04.241Z,10.67
2019-03-09T20:21:32.143Z,10.20
2019-03-09T20:24:00.258Z,11.23
2019-03-09T20:26:28.291Z,11.03
2019-03-09T20:28:56.363Z,10.90
2019-03-09T20:31:24.367Z,10.70
2019-03-09T20:33:52.410Z,10.50
2019-03-09T20:36:20.498Z,10.90
2019-03-09T20:38:48.662Z,10.30
2019-03-09T20:41:16.763Z,10.00
2019-03-09T20:43:44.860Z,9.80
2019-03-09T20:46:12.770Z,10.87
2019-03-09T20:48:40.832Z,10.63
2019-03-09T20:51:08.924Z,9.87
2019-03-09T20:53:37.072Z,9.77
2019-03-09T20:56:05.264Z,9.70
2019-03-09T20:58:33.455Z,9.70
2019-03-09T21:01:01.601Z,9.20
2019-03-09T21:03:29.597Z,9.70
2019-03-09T21:05:57.764Z,9.67
2019-03-09T21:08:25.804Z,9.50
2019-03-09T21:11:03.338Z,10.80
2019-03-09T21:13:23.501Z,11.60
2019-03-09T21:15:51.469Z,15.67
2019-03-09T21:18:19.554Z,12.57
2019-03-09T21:20:47.608Z,11.73
2019-03-09T21:23:15.604Z,11.37
2019-03-09T21:25:43.681Z,11.90
2019-03-09T21:28:11.698Z,13.20
2019-03-09T21:30:39.680Z,13.10
2019-03-09T21:33:07.684Z,11.37
2019-03-09T21:35:35.712Z,11.30
2019-03-09T21:38:03.693Z,11.03
2019-03-09T21:40:31.682Z,11.60
2019-03-09T21:42:59.722Z,11.57
2019-03-09T21:45:28.008Z,10.87
2019-03-09T21:47:55.967Z,11.90
2019-03-09T21:50:23.971Z,11.03
2019-03-09T21:52:52.022Z,11.00
2019-03-09T21:55:20.073Z,10.50
2019-03-09T21:57:48.075Z,11.17
2019-03-09T22:00:16.157Z,11.20
2019-03-09T22:02:44.201Z,10.80
2019-03-09T22:05:12.317Z,10.33
2019-03-09T22:07:40.230Z,11.90
2019-03-09T22:10:08.378Z,11.10
2019-03-09T22:12:36.312Z,11.30
2019-03-09T22:15:04.510Z,12.27
2019-03-09T22:17:32.418Z,12.53
2019-03-09T22:20:00.414Z,10.90
2019-03-09T22:22:28.463Z,11.60
2019-03-09T22:24:56.462Z,11.40
2019-03-09T22:27:24.428Z,12.27
2019-03-09T22:29:52.470Z,12.57
2019-03-09T22:32:20.460Z,12.17
2019-03-09T22:34:48.435Z,11.20
2019-03-09T22:37:16.410Z,11.53
2019-03-09T22:39:44.440Z,12.13
2019-03-09T22:42:12.445Z,12.20
2019-03-09T22:44:40.391Z,12.63
2019-03-09T22:47:11.926Z,11.37
2019-03-09T22:49:38.510Z,11.90
2019-03-09T22:52:06.575Z,11.07
2019-03-09T22:54:34.742Z,11.67
2019-03-09T22:57:02.784Z,11.33
2019-03-09T22:59:30.789Z,13.30
2019-03-09T23:01:58.998Z,12.30
2019-03-09T23:04:27.002Z,11.23
2019-03-09T23:06:54.996Z,11.40
2019-03-09T23:09:23.056Z,10.80
2019-03-09T23:11:51.107Z,10.30
2019-03-09T23:14:19.142Z,9.57
2019-03-09T23:16:47.482Z,8.67
2019-03-09T23:19:15.522Z,9.13
2019-03-09T23:21:43.506Z,9.00
2019-03-09T23:24:11.499Z,9.27
2019-03-09T23:26:39.462Z,8.67
2019-03-09T23:29:07.526Z,8.77
2019-03-09T23:31:35.593Z,8.60
2019-03-09T23:34:03.584Z,9.40
2019-03-09T23:36:31.614Z,9.27
2019-03-09T23:38:59.622Z,9.07
2019-03-09T23:41:27.658Z,9.23
2019-03-09T23:43:55.688Z,10.03
2019-03-09T23:46:23.743Z,10.10
2019-03-09T23:48:51.873Z,9.83
2019-03-09T23:51:19.901Z,9.00
2019-03-09T23:53:48.012Z,11.10
2019-03-09T23:56:16.103Z,10.57
2019-03-09T23:58:44.059Z,8.73
